sensor_id;sensor_type;location;lat;lon;timestamp;temperature;humidity
5134;DHT22;2585;48.696;10.066;2024-01-30T00:00:03;-1.90;24.10
5134;DHT22;2585;48.696;10.066;2024-01-30T00:02:32;-1.90;24.40
5134;DHT22;2585;48.696;10.066;2024-01-30T00:04:58;-1.90;21.90
5134;DHT22;2585;48.696;10.066;2024-01-30T00:07:25;-1.90;20.90
5134;DHT22;2585;48.696;10.066;2024-01-30T00:09:52;-2.00;17.40
5134;DHT22;2585;48.696;10.066;2024-01-30T00:12:19;-2.00;17.20
5134;DHT22;2585;48.696;10.066;2024-01-30T00:14:46;-2.10;19.40
5134;DHT22;2585;48.696;10.066;2024-01-30T00:17:13;-2.20;20.00
5134;DHT22;2585;48.696;10.066;2024-01-30T00:19:40;-2.10;22.90
5134;DHT22;2585;48.696;10.066;2024-01-30T00:22:07;-2.20;24.90
5134;DHT22;2585;48.696;10.066;2024-01-30T00:24:34;-2.20;26.40
5134;DHT22;2585;48.696;10.066;2024-01-30T00:27:01;-2.20;26.90
5134;DHT22;2585;48.696;10.066;2024-01-30T00:29:28;-2.20;31.80
5134;DHT22;2585;48.696;10.066;2024-01-30T00:31:57;-2.20;35.00
5134;DHT22;2585;48.696;10.066;2024-01-30T00:34:24;-2.20;34.90
5134;DHT22;2585;48.696;10.066;2024-01-30T00:36:51;-2.20;33.50
5134;DHT22;2585;48.696;10.066;2024-01-30T00:39:18;-2.20;33.20
5134;DHT22;2585;48.696;10.066;2024-01-30T00:41:46;-2.30;33.60
5134;DHT22;2585;48.696;10.066;2024-01-30T00:44:13;-2.20;35.60
5134;DHT22;2585;48.696;10.066;2024-01-30T00:46:40;-2.30;35.20
5134;DHT22;2585;48.696;10.066;2024-01-30T00:49:06;-2.30;34.70
5134;DHT22;2585;48.696;10.066;2024-01-30T00:51:33;-2.30;36.90
5134;DHT22;2585;48.696;10.066;2024-01-30T00:54:00;-2.30;38.30
5134;DHT22;2585;48.696;10.066;2024-01-30T00:56:27;-2.40;40.50
5134;DHT22;2585;48.696;10.066;2024-01-30T00:58:54;-2.30;43.80
5134;DHT22;2585;48.696;10.066;2024-01-30T01:01:21;-2.40;43.90
5134;DHT22;2585;48.696;10.066;2024-01-30T01:03:48;-2.40;44.10
5134;DHT22;2585;48.696;10.066;2024-01-30T01:06:15;-2.40;45.90
5134;DHT22;2585;48.696;10.066;2024-01-30T01:08:42;-2.40;49.10
5134;DHT22;2585;48.696;10.066;2024-01-30T01:11:09;-2.50;48.50
5134;DHT22;2585;48.696;10.066;2024-01-30T01:13:36;-2.50;48.80
5134;DHT22;2585;48.696;10.066;2024-01-30T01:16:03;-2.50;47.40
5134;DHT22;2585;48.696;10.066;2024-01-30T01:18:30;-2.50;48.70
5134;DHT22;2585;48.696;10.066;2024-01-30T01:20:57;-2.50;50.50
5134;DHT22;2585;48.696;10.066;2024-01-30T01:23:24;-2.50;52.00
5134;DHT22;2585;48.696;10.066;2024-01-30T01:25:51;-2.50;54.00
5134;DHT22;2585;48.696;10.066;2024-01-30T01:28:18;-2.50;54.40
5134;DHT22;2585;48.696;10.066;2024-01-30T01:30:45;-2.50;55.70
5134;DHT22;2585;48.696;10.066;2024-01-30T01:33:13;-2.60;55.90
5134;DHT22;2585;48.696;10.066;2024-01-30T01:35:41;-2.50;58.70
5134;DHT22;2585;48.696;10.066;2024-01-30T01:38:08;-2.50;60.00
5134;DHT22;2585;48.696;10.066;2024-01-30T01:40:35;-2.50;60.90
5134;DHT22;2585;48.696;10.066;2024-01-30T01:43:03;-2.50;60.70
5134;DHT22;2585;48.696;10.066;2024-01-30T01:45:31;-2.50;61.70
5134;DHT22;2585;48.696;10.066;2024-01-30T01:47:58;-2.50;62.10
5134;DHT22;2585;48.696;10.066;2024-01-30T01:50:25;-2.50;62.20
5134;DHT22;2585;48.696;10.066;2024-01-30T01:52:53;-2.50;63.00
5134;DHT22;2585;48.696;10.066;2024-01-30T01:55:21;-2.50;63.60
5134;DHT22;2585;48.696;10.066;2024-01-30T01:57:50;-2.50;63.90
5134;DHT22;2585;48.696;10.066;2024-01-30T02:00:18;-2.50;63.80
5134;DHT22;2585;48.696;10.066;2024-01-30T02:02:46;-2.50;64.40
5134;DHT22;2585;48.696;10.066;2024-01-30T02:05:15;-2.50;65.10
5134;DHT22;2585;48.696;10.066;2024-01-30T02:07:42;-2.50;65.80
5134;DHT22;2585;48.696;10.066;2024-01-30T02:10:10;-2.50;66.70
5134;DHT22;2585;48.696;10.066;2024-01-30T02:12:37;-2.50;67.80
5134;DHT22;2585;48.696;10.066;2024-01-30T02:15:04;-2.40;68.50
5134;DHT22;2585;48.696;10.066;2024-01-30T02:17:31;-2.50;68.70
5134;DHT22;2585;48.696;10.066;2024-01-30T02:19:59;-2.50;69.30
5134;DHT22;2585;48.696;10.066;2024-01-30T02:22:27;-2.50;70.20
5134;DHT22;2585;48.696;10.066;2024-01-30T02:24:54;-2.50;71.10
5134;DHT22;2585;48.696;10.066;2024-01-30T02:27:21;-2.50;71.60
5134;DHT22;2585;48.696;10.066;2024-01-30T02:29:47;-2.50;72.30
5134;DHT22;2585;48.696;10.066;2024-01-30T02:32:14;-2.50;73.00
5134;DHT22;2585;48.696;10.066;2024-01-30T02:34:41;-2.50;73.80
5134;DHT22;2585;48.696;10.066;2024-01-30T02:37:08;-2.40;74.70
5134;DHT22;2585;48.696;10.066;2024-01-30T02:39:35;-2.50;75.10
5134;DHT22;2585;48.696;10.066;2024-01-30T02:42:01;-2.50;75.40
5134;DHT22;2585;48.696;10.066;2024-01-30T02:44:28;-2.50;75.90
5134;DHT22;2585;48.696;10.066;2024-01-30T02:46:55;-2.40;76.30
5134;DHT22;2585;48.696;10.066;2024-01-30T02:49:22;-2.40;76.70
5134;DHT22;2585;48.696;10.066;2024-01-30T02:51:49;-2.40;76.90
5134;DHT22;2585;48.696;10.066;2024-01-30T02:54:16;-2.40;77.30
5134;DHT22;2585;48.696;10.066;2024-01-30T02:56:43;-2.40;77.40
5134;DHT22;2585;48.696;10.066;2024-01-30T02:59:10;-2.40;77.60
5134;DHT22;2585;48.696;10.066;2024-01-30T03:01:45;-2.50;77.40
5134;DHT22;2585;48.696;10.066;2024-01-30T03:04:13;-2.40;77.60
5134;DHT22;2585;48.696;10.066;2024-01-30T03:06:45;-2.40;77.90
5134;DHT22;2585;48.696;10.066;2024-01-30T03:09:16;-2.50;77.80
5134;DHT22;2585;48.696;10.066;2024-01-30T03:11:43;-2.50;77.70
5134;DHT22;2585;48.696;10.066;2024-01-30T03:14:10;-2.50;77.60
5134;DHT22;2585;48.696;10.066;2024-01-30T03:16:37;-2.50;77.70
5134;DHT22;2585;48.696;10.066;2024-01-30T03:19:06;-2.50;77.60
5134;DHT22;2585;48.696;10.066;2024-01-30T03:21:34;-2.50;77.60
5134;DHT22;2585;48.696;10.066;2024-01-30T03:24:01;-2.60;77.40
5134;DHT22;2585;48.696;10.066;2024-01-30T03:26:28;-2.60;77.20
5134;DHT22;2585;48.696;10.066;2024-01-30T03:28:55;-2.60;77.40
5134;DHT22;2585;48.696;10.066;2024-01-30T03:31:22;-2.60;77.40
5134;DHT22;2585;48.696;10.066;2024-01-30T03:33:49;-2.60;77.10
5134;DHT22;2585;48.696;10.066;2024-01-30T03:36:16;-2.60;76.90
5134;DHT22;2585;48.696;10.066;2024-01-30T03:38:43;-2.70;76.80
5134;DHT22;2585;48.696;10.066;2024-01-30T03:41:10;-2.70;76.70
5134;DHT22;2585;48.696;10.066;2024-01-30T03:43:37;-2.70;76.40
5134;DHT22;2585;48.696;10.066;2024-01-30T03:46:04;-2.60;76.60
5134;DHT22;2585;48.696;10.066;2024-01-30T03:48:31;-2.70;76.40
5134;DHT22;2585;48.696;10.066;2024-01-30T03:50:57;-2.70;75.80
5134;DHT22;2585;48.696;10.066;2024-01-30T03:53:24;-2.70;76.00
5134;DHT22;2585;48.696;10.066;2024-01-30T03:55:51;-2.70;75.80
5134;DHT22;2585;48.696;10.066;2024-01-30T03:58:18;-2.70;75.50
5134;DHT22;2585;48.696;10.066;2024-01-30T04:00:45;-2.80;75.40
5134;DHT22;2585;48.696;10.066;2024-01-30T04:03:12;-2.80;75.30
5134;DHT22;2585;48.696;10.066;2024-01-30T04:05:39;-2.80;74.90
5134;DHT22;2585;48.696;10.066;2024-01-30T04:08:06;-2.90;74.50
5134;DHT22;2585;48.696;10.066;2024-01-30T04:10:33;-2.90;74.20
5134;DHT22;2585;48.696;10.066;2024-01-30T04:13:02;-2.90;74.10
5134;DHT22;2585;48.696;10.066;2024-01-30T04:15:29;-2.90;74.10
5134;DHT22;2585;48.696;10.066;2024-01-30T04:17:59;-2.90;74.00
5134;DHT22;2585;48.696;10.066;2024-01-30T04:20:26;-3.00;73.50
5134;DHT22;2585;48.696;10.066;2024-01-30T04:22:53;-3.00;73.40
5134;DHT22;2585;48.696;10.066;2024-01-30T04:25:20;-3.00;73.50
5134;DHT22;2585;48.696;10.066;2024-01-30T04:27:47;-3.00;73.50
5134;DHT22;2585;48.696;10.066;2024-01-30T04:30:14;-3.10;73.20
5134;DHT22;2585;48.696;10.066;2024-01-30T04:32:41;-3.10;73.20
5134;DHT22;2585;48.696;10.066;2024-01-30T04:35:08;-3.10;73.10
5134;DHT22;2585;48.696;10.066;2024-01-30T04:37:38;-3.00;73.30
5134;DHT22;2585;48.696;10.066;2024-01-30T04:40:05;-3.10;73.20
5134;DHT22;2585;48.696;10.066;2024-01-30T04:42:33;-3.10;73.00
5134;DHT22;2585;48.696;10.066;2024-01-30T04:44:59;-3.10;73.30
5134;DHT22;2585;48.696;10.066;2024-01-30T04:47:26;-3.20;73.40
5134;DHT22;2585;48.696;10.066;2024-01-30T04:49:53;-3.20;73.70
5134;DHT22;2585;48.696;10.066;2024-01-30T04:52:20;-3.20;73.40
5134;DHT22;2585;48.696;10.066;2024-01-30T04:54:47;-3.20;73.60
5134;DHT22;2585;48.696;10.066;2024-01-30T04:57:14;-3.20;73.60
5134;DHT22;2585;48.696;10.066;2024-01-30T04:59:41;-3.20;73.60
5134;DHT22;2585;48.696;10.066;2024-01-30T05:02:08;-3.20;73.80
5134;DHT22;2585;48.696;10.066;2024-01-30T05:04:35;-3.20;73.80
5134;DHT22;2585;48.696;10.066;2024-01-30T05:07:02;-3.20;73.90
5134;DHT22;2585;48.696;10.066;2024-01-30T05:09:29;-3.30;73.90
5134;DHT22;2585;48.696;10.066;2024-01-30T05:11:56;-3.30;73.60
5134;DHT22;2585;48.696;10.066;2024-01-30T05:14:23;-3.40;73.60
5134;DHT22;2585;48.696;10.066;2024-01-30T05:16:49;-3.30;74.20
5134;DHT22;2585;48.696;10.066;2024-01-30T05:19:16;-3.40;73.80
5134;DHT22;2585;48.696;10.066;2024-01-30T05:21:44;-3.30;74.10
5134;DHT22;2585;48.696;10.066;2024-01-30T05:24:11;-3.30;74.20
5134;DHT22;2585;48.696;10.066;2024-01-30T05:26:38;-3.40;74.40
5134;DHT22;2585;48.696;10.066;2024-01-30T05:29:06;-3.40;74.50
5134;DHT22;2585;48.696;10.066;2024-01-30T05:31:36;-3.40;74.80
5134;DHT22;2585;48.696;10.066;2024-01-30T05:34:03;-3.40;74.70
5134;DHT22;2585;48.696;10.066;2024-01-30T05:36:29;-3.40;74.80
5134;DHT22;2585;48.696;10.066;2024-01-30T05:38:56;-3.40;74.90
5134;DHT22;2585;48.696;10.066;2024-01-30T05:41:24;-3.40;75.10
5134;DHT22;2585;48.696;10.066;2024-01-30T05:43:51;-3.50;75.20
5134;DHT22;2585;48.696;10.066;2024-01-30T05:46:17;-3.50;75.30
5134;DHT22;2585;48.696;10.066;2024-01-30T05:48:47;-3.40;75.70
5134;DHT22;2585;48.696;10.066;2024-01-30T05:51:14;-3.50;75.90
5134;DHT22;2585;48.696;10.066;2024-01-30T05:53:41;-3.50;75.80
5134;DHT22;2585;48.696;10.066;2024-01-30T05:56:08;-3.50;76.00
5134;DHT22;2585;48.696;10.066;2024-01-30T05:58:35;-3.50;76.60
5134;DHT22;2585;48.696;10.066;2024-01-30T06:01:07;-3.50;77.00
5134;DHT22;2585;48.696;10.066;2024-01-30T06:03:35;-3.50;77.20
5134;DHT22;2585;48.696;10.066;2024-01-30T06:06:02;-3.50;77.40
5134;DHT22;2585;48.696;10.066;2024-01-30T06:08:29;-3.40;77.60
5134;DHT22;2585;48.696;10.066;2024-01-30T06:10:56;-3.50;77.50
5134;DHT22;2585;48.696;10.066;2024-01-30T06:13:23;-3.50;77.50
5134;DHT22;2585;48.696;10.066;2024-01-30T06:15:49;-3.50;77.50
5134;DHT22;2585;48.696;10.066;2024-01-30T06:18:16;-3.50;77.40
5134;DHT22;2585;48.696;10.066;2024-01-30T06:20:43;-3.60;77.20
5134;DHT22;2585;48.696;10.066;2024-01-30T06:23:10;-3.60;77.40
5134;DHT22;2585;48.696;10.066;2024-01-30T06:25:40;-3.60;77.30
5134;DHT22;2585;48.696;10.066;2024-01-30T06:28:07;-3.60;77.60
5134;DHT22;2585;48.696;10.066;2024-01-30T06:30:33;-3.60;77.70
5134;DHT22;2585;48.696;10.066;2024-01-30T06:33:00;-3.60;78.00
5134;DHT22;2585;48.696;10.066;2024-01-30T06:35:27;-3.60;78.30
5134;DHT22;2585;48.696;10.066;2024-01-30T06:37:55;-3.60;78.70
5134;DHT22;2585;48.696;10.066;2024-01-30T06:40:22;-3.60;79.00
5134;DHT22;2585;48.696;10.066;2024-01-30T06:42:50;-3.60;79.20
5134;DHT22;2585;48.696;10.066;2024-01-30T06:45:17;-3.50;79.80
5134;DHT22;2585;48.696;10.066;2024-01-30T06:47:43;-3.50;80.10
5134;DHT22;2585;48.696;10.066;2024-01-30T06:50:10;-3.50;80.50
5134;DHT22;2585;48.696;10.066;2024-01-30T06:52:37;-3.50;80.80
5134;DHT22;2585;48.696;10.066;2024-01-30T06:55:04;-3.40;81.10
5134;DHT22;2585;48.696;10.066;2024-01-30T06:57:31;-3.40;81.30
5134;DHT22;2585;48.696;10.066;2024-01-30T06:59:58;-3.30;81.90
5134;DHT22;2585;48.696;10.066;2024-01-30T07:02:25;-3.20;82.40
5134;DHT22;2585;48.696;10.066;2024-01-30T07:04:51;-3.20;82.90
5134;DHT22;2585;48.696;10.066;2024-01-30T07:07:18;-3.10;83.20
5134;DHT22;2585;48.696;10.066;2024-01-30T07:09:45;-3.10;83.60
5134;DHT22;2585;48.696;10.066;2024-01-30T07:12:14;-3.00;84.00
5134;DHT22;2585;48.696;10.066;2024-01-30T07:14:41;-3.00;84.30
5134;DHT22;2585;48.696;10.066;2024-01-30T07:17:07;-2.90;84.60
5134;DHT22;2585;48.696;10.066;2024-01-30T07:19:34;-2.90;85.00
5134;DHT22;2585;48.696;10.066;2024-01-30T07:22:01;-2.80;85.30
5134;DHT22;2585;48.696;10.066;2024-01-30T07:24:28;-2.80;85.60
5134;DHT22;2585;48.696;10.066;2024-01-30T07:26:55;-2.70;86.00
5134;DHT22;2585;48.696;10.066;2024-01-30T07:29:22;-2.70;86.20
5134;DHT22;2585;48.696;10.066;2024-01-30T07:31:49;-2.60;86.60
5134;DHT22;2585;48.696;10.066;2024-01-30T07:34:15;-2.50;86.90
5134;DHT22;2585;48.696;10.066;2024-01-30T07:36:42;-2.40;87.40
5134;DHT22;2585;48.696;10.066;2024-01-30T07:39:09;-2.40;87.70
5134;DHT22;2585;48.696;10.066;2024-01-30T07:41:36;-2.30;88.00
5134;DHT22;2585;48.696;10.066;2024-01-30T07:44:03;-2.20;88.40
5134;DHT22;2585;48.696;10.066;2024-01-30T07:46:30;-2.10;88.70
5134;DHT22;2585;48.696;10.066;2024-01-30T07:48:58;-2.00;89.10
5134;DHT22;2585;48.696;10.066;2024-01-30T07:51:24;-2.00;89.30
5134;DHT22;2585;48.696;10.066;2024-01-30T07:53:51;-1.90;89.60
5134;DHT22;2585;48.696;10.066;2024-01-30T07:56:18;-1.90;89.90
5134;DHT22;2585;48.696;10.066;2024-01-30T07:58:45;-1.80;90.10
5134;DHT22;2585;48.696;10.066;2024-01-30T08:01:12;-1.80;90.20
5134;DHT22;2585;48.696;10.066;2024-01-30T08:03:39;-1.70;90.30
5134;DHT22;2585;48.696;10.066;2024-01-30T08:06:08;-1.70;90.50
5134;DHT22;2585;48.696;10.066;2024-01-30T08:08:35;-1.60;90.60
5134;DHT22;2585;48.696;10.066;2024-01-30T08:11:02;-1.50;90.80
5134;DHT22;2585;48.696;10.066;2024-01-30T08:13:28;-1.40;90.90
5134;DHT22;2585;48.696;10.066;2024-01-30T08:15:55;-1.40;91.00
5134;DHT22;2585;48.696;10.066;2024-01-30T08:18:22;-1.30;91.20
5134;DHT22;2585;48.696;10.066;2024-01-30T08:20:49;-1.20;91.30
5134;DHT22;2585;48.696;10.066;2024-01-30T08:23:16;-1.20;91.40
5134;DHT22;2585;48.696;10.066;2024-01-30T08:25:43;-1.10;91.50
5134;DHT22;2585;48.696;10.066;2024-01-30T08:28:09;-1.00;91.60
5134;DHT22;2585;48.696;10.066;2024-01-30T08:30:37;-1.00;91.70
5134;DHT22;2585;48.696;10.066;2024-01-30T08:33:05;-0.90;91.80
5134;DHT22;2585;48.696;10.066;2024-01-30T08:35:32;-0.80;91.90
5134;DHT22;2585;48.696;10.066;2024-01-30T08:38:00;-0.70;91.90
5134;DHT22;2585;48.696;10.066;2024-01-30T08:40:27;-0.60;92.00
5134;DHT22;2585;48.696;10.066;2024-01-30T08:42:55;-0.60;92.10
5134;DHT22;2585;48.696;10.066;2024-01-30T08:45:22;-0.50;92.20
5134;DHT22;2585;48.696;10.066;2024-01-30T08:47:49;-0.50;92.20
5134;DHT22;2585;48.696;10.066;2024-01-30T08:50:16;-0.40;92.20
5134;DHT22;2585;48.696;10.066;2024-01-30T08:52:43;-0.40;92.30
5134;DHT22;2585;48.696;10.066;2024-01-30T08:55:13;-0.30;92.30
5134;DHT22;2585;48.696;10.066;2024-01-30T08:57:40;-0.20;92.40
5134;DHT22;2585;48.696;10.066;2024-01-30T09:00:07;-0.20;92.40
5134;DHT22;2585;48.696;10.066;2024-01-30T09:02:35;-0.10;92.50
5134;DHT22;2585;48.696;10.066;2024-01-30T09:05:03;0.00;92.50
5134;DHT22;2585;48.696;10.066;2024-01-30T09:07:30;0.10;92.60
5134;DHT22;2585;48.696;10.066;2024-01-30T09:09:57;0.20;92.60
5134;DHT22;2585;48.696;10.066;2024-01-30T09:12:24;0.30;92.70
5134;DHT22;2585;48.696;10.066;2024-01-30T09:14:51;0.40;92.70
5134;DHT22;2585;48.696;10.066;2024-01-30T09:17:18;0.50;92.70
5134;DHT22;2585;48.696;10.066;2024-01-30T09:19:45;0.60;92.80
5134;DHT22;2585;48.696;10.066;2024-01-30T09:22:13;0.70;92.80
5134;DHT22;2585;48.696;10.066;2024-01-30T09:24:40;0.80;92.90
5134;DHT22;2585;48.696;10.066;2024-01-30T09:27:07;0.90;92.90
5134;DHT22;2585;48.696;10.066;2024-01-30T09:29:34;1.00;92.80
5134;DHT22;2585;48.696;10.066;2024-01-30T09:32:04;1.10;92.80
5134;DHT22;2585;48.696;10.066;2024-01-30T09:34:32;1.20;92.80
5134;DHT22;2585;48.696;10.066;2024-01-30T09:36:59;1.30;92.80
5134;DHT22;2585;48.696;10.066;2024-01-30T09:39:27;1.50;92.80
5134;DHT22;2585;48.696;10.066;2024-01-30T09:44:28;1.60;92.50
5134;DHT22;2585;48.696;10.066;2024-01-30T09:46:55;1.60;92.10
5134;DHT22;2585;48.696;10.066;2024-01-30T09:49:25;1.70;92.10
5134;DHT22;2585;48.696;10.066;2024-01-30T09:51:54;2.00;92.20
5134;DHT22;2585;48.696;10.066;2024-01-30T09:54:22;2.30;92.20
5134;DHT22;2585;48.696;10.066;2024-01-30T09:56:49;2.50;92.10
5134;DHT22;2585;48.696;10.066;2024-01-30T09:59:16;2.80;92.10
5134;DHT22;2585;48.696;10.066;2024-01-30T10:01:43;3.00;91.90
5134;DHT22;2585;48.696;10.066;2024-01-30T10:04:11;3.20;91.80
5134;DHT22;2585;48.696;10.066;2024-01-30T10:06:38;3.40;91.40
5134;DHT22;2585;48.696;10.066;2024-01-30T10:09:06;3.40;90.40
5134;DHT22;2585;48.696;10.066;2024-01-30T10:11:32;3.50;88.60
5134;DHT22;2585;48.696;10.066;2024-01-30T10:14:00;3.80;86.70
5134;DHT22;2585;48.696;10.066;2024-01-30T10:16:27;3.90;84.30
5134;DHT22;2585;48.696;10.066;2024-01-30T10:18:54;3.90;81.50
5134;DHT22;2585;48.696;10.066;2024-01-30T10:21:23;4.00;82.20
5134;DHT22;2585;48.696;10.066;2024-01-30T10:23:50;4.10;77.80
5134;DHT22;2585;48.696;10.066;2024-01-30T10:26:17;4.40;79.20
5134;DHT22;2585;48.696;10.066;2024-01-30T10:28:48;4.40;67.60
5134;DHT22;2585;48.696;10.066;2024-01-30T10:31:18;4.70;69.10
5134;DHT22;2585;48.696;10.066;2024-01-30T10:33:45;4.70;64.40
5134;DHT22;2585;48.696;10.066;2024-01-30T10:36:14;4.80;56.30
5134;DHT22;2585;48.696;10.066;2024-01-30T10:38:48;4.80;57.30
5134;DHT22;2585;48.696;10.066;2024-01-30T10:41:20;5.10;60.50
5134;DHT22;2585;48.696;10.066;2024-01-30T10:44:02;5.10;60.00
5134;DHT22;2585;48.696;10.066;2024-01-30T10:46:31;5.30;54.70
5134;DHT22;2585;48.696;10.066;2024-01-30T10:48:59;5.30;35.90
5134;DHT22;2585;48.696;10.066;2024-01-30T10:51:26;5.40;35.90
5134;DHT22;2585;48.696;10.066;2024-01-30T10:53:56;5.60;27.10
5134;DHT22;2585;48.696;10.066;2024-01-30T10:56:25;5.80;22.50
5134;DHT22;2585;48.696;10.066;2024-01-30T10:58:53;6.00;1.00
5134;DHT22;2585;48.696;10.066;2024-01-30T11:01:21;6.20;1.00
5134;DHT22;2585;48.696;10.066;2024-01-30T11:03:53;6.30;1.00
5134;DHT22;2585;48.696;10.066;2024-01-30T11:06:25;6.20;1.00
5134;DHT22;2585;48.696;10.066;2024-01-30T11:09:06;6.30;1.00
5134;DHT22;2585;48.696;10.066;2024-01-30T11:11:57;6.30;88.50
5134;DHT22;2585;48.696;10.066;2024-01-30T11:14:29;6.50;89.60
5134;DHT22;2585;48.696;10.066;2024-01-30T11:17:00;6.60;89.50
5134;DHT22;2585;48.696;10.066;2024-01-30T11:19:30;6.70;90.50
5134;DHT22;2585;48.696;10.066;2024-01-30T11:21:57;6.60;75.50
5134;DHT22;2585;48.696;10.066;2024-01-30T11:24:25;6.60;72.10
5134;DHT22;2585;48.696;10.066;2024-01-30T11:26:57;6.60;70.10
5134;DHT22;2585;48.696;10.066;2024-01-30T11:29:28;6.60;64.70
5134;DHT22;2585;48.696;10.066;2024-01-30T11:31:56;6.70;60.60
5134;DHT22;2585;48.696;10.066;2024-01-30T11:34:23;6.70;36.30
5134;DHT22;2585;48.696;10.066;2024-01-30T11:36:59;6.90;64.20
5134;DHT22;2585;48.696;10.066;2024-01-30T11:39:27;7.10;69.50
5134;DHT22;2585;48.696;10.066;2024-01-30T11:41:54;7.10;13.80
5134;DHT22;2585;48.696;10.066;2024-01-30T11:44:22;7.20;1.00
5134;DHT22;2585;48.696;10.066;2024-01-30T11:46:51;7.30;1.00
5134;DHT22;2585;48.696;10.066;2024-01-30T11:49:18;7.30;1.00
5134;DHT22;2585;48.696;10.066;2024-01-30T11:51:46;7.30;1.00
5134;DHT22;2585;48.696;10.066;2024-01-30T11:54:18;7.20;1.00
5134;DHT22;2585;48.696;10.066;2024-01-30T11:56:45;7.10;1.00
5134;DHT22;2585;48.696;10.066;2024-01-30T11:59:12;7.20;14.80
5134;DHT22;2585;48.696;10.066;2024-01-30T12:01:40;7.10;5.50
5134;DHT22;2585;48.696;10.066;2024-01-30T12:04:07;7.20;1.00
5134;DHT22;2585;48.696;10.066;2024-01-30T12:06:38;7.20;1.00
5134;DHT22;2585;48.696;10.066;2024-01-30T12:09:06;7.20;1.00
5134;DHT22;2585;48.696;10.066;2024-01-30T12:11:49;7.30;1.00
5134;DHT22;2585;48.696;10.066;2024-01-30T12:14:19;7.30;6.10
5134;DHT22;2585;48.696;10.066;2024-01-30T12:16:49;7.20;1.00
5134;DHT22;2585;48.696;10.066;2024-01-30T12:19:24;7.20;1.00
5134;DHT22;2585;48.696;10.066;2024-01-30T12:21:57;7.30;1.00
5134;DHT22;2585;48.696;10.066;2024-01-30T12:24:27;7.30;85.40
5134;DHT22;2585;48.696;10.066;2024-01-30T12:27:00;7.40;78.40
5134;DHT22;2585;48.696;10.066;2024-01-30T12:29:27;7.40;75.50
5134;DHT22;2585;48.696;10.066;2024-01-30T12:32:00;7.40;61.70
5134;DHT22;2585;48.696;10.066;2024-01-30T12:34:27;7.50;68.80
5134;DHT22;2585;48.696;10.066;2024-01-30T12:36:55;7.50;64.10
5134;DHT22;2585;48.696;10.066;2024-01-30T12:39:22;7.60;88.70
5134;DHT22;2585;48.696;10.066;2024-01-30T12:41:50;7.70;1.00
5134;DHT22;2585;48.696;10.066;2024-01-30T12:44:17;7.60;85.90
5134;DHT22;2585;48.696;10.066;2024-01-30T12:46:44;7.60;90.70
5134;DHT22;2585;48.696;10.066;2024-01-30T12:49:14;7.70;88.00
5134;DHT22;2585;48.696;10.066;2024-01-30T12:51:41;7.90;86.10
5134;DHT22;2585;48.696;10.066;2024-01-30T12:54:08;8.10;68.80
5134;DHT22;2585;48.696;10.066;2024-01-30T12:56:35;8.10;1.00
5134;DHT22;2585;48.696;10.066;2024-01-30T12:59:02;8.10;1.00
5134;DHT22;2585;48.696;10.066;2024-01-30T13:01:28;8.20;1.00
5134;DHT22;2585;48.696;10.066;2024-01-30T13:03:55;8.20;1.00
5134;DHT22;2585;48.696;10.066;2024-01-30T13:06:24;8.30;91.10
5134;DHT22;2585;48.696;10.066;2024-01-30T13:08:51;8.20;1.00
5134;DHT22;2585;48.696;10.066;2024-01-30T13:11:17;8.30;1.00
5134;DHT22;2585;48.696;10.066;2024-01-30T13:13:47;8.30;91.40
5134;DHT22;2585;48.696;10.066;2024-01-30T13:16:14;8.40;1.00
5134;DHT22;2585;48.696;10.066;2024-01-30T13:18:41;8.30;87.30
5134;DHT22;2585;48.696;10.066;2024-01-30T13:21:08;8.30;91.20
5134;DHT22;2585;48.696;10.066;2024-01-30T13:23:35;8.30;1.00
5134;DHT22;2585;48.696;10.066;2024-01-30T13:26:02;8.20;1.00
5134;DHT22;2585;48.696;10.066;2024-01-30T13:28:29;8.30;1.00
5134;DHT22;2585;48.696;10.066;2024-01-30T13:30:56;8.30;1.00
5134;DHT22;2585;48.696;10.066;2024-01-30T13:33:23;8.30;87.80
5134;DHT22;2585;48.696;10.066;2024-01-30T13:35:50;8.30;1.00
5134;DHT22;2585;48.696;10.066;2024-01-30T13:38:16;8.30;83.60
5134;DHT22;2585;48.696;10.066;2024-01-30T13:40:43;8.50;90.50
5134;DHT22;2585;48.696;10.066;2024-01-30T13:43:10;8.50;1.00
5134;DHT22;2585;48.696;10.066;2024-01-30T13:45:37;8.70;1.00
5134;DHT22;2585;48.696;10.066;2024-01-30T13:48:04;8.80;1.00
5134;DHT22;2585;48.696;10.066;2024-01-30T13:50:31;9.00;89.40
5134;DHT22;2585;48.696;10.066;2024-01-30T13:53:00;9.10;62.00
5134;DHT22;2585;48.696;10.066;2024-01-30T13:55:27;9.10;1.00
5134;DHT22;2585;48.696;10.066;2024-01-30T13:57:54;9.00;1.00
5134;DHT22;2585;48.696;10.066;2024-01-30T14:00:22;9.00;1.00
5134;DHT22;2585;48.696;10.066;2024-01-30T14:02:49;8.90;1.00
5134;DHT22;2585;48.696;10.066;2024-01-30T14:05:16;8.90;39.10
5134;DHT22;2585;48.696;10.066;2024-01-30T14:07:44;8.90;50.20
5134;DHT22;2585;48.696;10.066;2024-01-30T14:10:12;8.90;86.80
5134;DHT22;2585;48.696;10.066;2024-01-30T14:12:42;8.90;91.80
5134;DHT22;2585;48.696;10.066;2024-01-30T14:15:09;8.80;1.00
5134;DHT22;2585;48.696;10.066;2024-01-30T14:17:53;8.80;28.60
5134;DHT22;2585;48.696;10.066;2024-01-30T14:20:20;8.70;65.90
5134;DHT22;2585;48.696;10.066;2024-01-30T14:22:47;8.50;89.90
5134;DHT22;2585;48.696;10.066;2024-01-30T14:25:14;8.50;66.80
5134;DHT22;2585;48.696;10.066;2024-01-30T14:27:40;8.40;77.40
5134;DHT22;2585;48.696;10.066;2024-01-30T14:30:10;8.30;73.70
5134;DHT22;2585;48.696;10.066;2024-01-30T14:32:37;8.20;1.00
5134;DHT22;2585;48.696;10.066;2024-01-30T14:35:05;8.20;1.00
5134;DHT22;2585;48.696;10.066;2024-01-30T14:37:32;8.20;1.00
5134;DHT22;2585;48.696;10.066;2024-01-30T14:39:59;8.20;1.00
5134;DHT22;2585;48.696;10.066;2024-01-30T14:42:26;8.10;62.40
5134;DHT22;2585;48.696;10.066;2024-01-30T14:44:53;8.10;61.20
5134;DHT22;2585;48.696;10.066;2024-01-30T14:47:20;8.10;60.40
5134;DHT22;2585;48.696;10.066;2024-01-30T14:49:47;8.10;64.40
5134;DHT22;2585;48.696;10.066;2024-01-30T14:52:14;8.10;71.40
5134;DHT22;2585;48.696;10.066;2024-01-30T14:54:41;8.10;77.90
5134;DHT22;2585;48.696;10.066;2024-01-30T14:57:08;8.00;83.40
5134;DHT22;2585;48.696;10.066;2024-01-30T14:59:35;8.00;77.40
5134;DHT22;2585;48.696;10.066;2024-01-30T15:02:02;7.90;76.80
5134;DHT22;2585;48.696;10.066;2024-01-30T15:04:29;7.90;82.00
5134;DHT22;2585;48.696;10.066;2024-01-30T15:06:56;7.80;86.10
5134;DHT22;2585;48.696;10.066;2024-01-30T15:09:23;7.70;86.50
5134;DHT22;2585;48.696;10.066;2024-01-30T15:11:55;7.60;1.00
5134;DHT22;2585;48.696;10.066;2024-01-30T15:14:23;7.50;1.00
5134;DHT22;2585;48.696;10.066;2024-01-30T15:16:50;7.50;1.00
5134;DHT22;2585;48.696;10.066;2024-01-30T15:19:17;7.40;1.00
5134;DHT22;2585;48.696;10.066;2024-01-30T15:21:44;7.30;1.00
5134;DHT22;2585;48.696;10.066;2024-01-30T15:24:11;7.30;1.00
5134;DHT22;2585;48.696;10.066;2024-01-30T15:26:41;7.30;1.00
5134;DHT22;2585;48.696;10.066;2024-01-30T15:29:08;7.20;1.00
5134;DHT22;2585;48.696;10.066;2024-01-30T15:31:35;7.20;1.00
5134;DHT22;2585;48.696;10.066;2024-01-30T15:34:02;7.10;1.00
5134;DHT22;2585;48.696;10.066;2024-01-30T15:36:29;7.00;1.00
5134;DHT22;2585;48.696;10.066;2024-01-30T15:38:57;6.90;1.00
5134;DHT22;2585;48.696;10.066;2024-01-30T15:41:24;6.80;10.70
5134;DHT22;2585;48.696;10.066;2024-01-30T15:43:50;6.60;38.80
5134;DHT22;2585;48.696;10.066;2024-01-30T15:46:18;6.60;42.60
5134;DHT22;2585;48.696;10.066;2024-01-30T15:48:45;6.40;38.70
5134;DHT22;2585;48.696;10.066;2024-01-30T15:51:13;6.40;48.30
5134;DHT22;2585;48.696;10.066;2024-01-30T15:53:40;6.20;54.00
5134;DHT22;2585;48.696;10.066;2024-01-30T15:56:07;6.10;75.00
5134;DHT22;2585;48.696;10.066;2024-01-30T15:58:34;6.00;75.40